sensor_id;sensor_type;location;lat;lon;timestamp;temperature;humidity
2327;DHT22;1174;51.588;7.328;2022-07-23T00:01:09;18.90;99.90
2327;DHT22;1174;51.588;7.328;2022-07-23T00:03:36;18.80;99.90
2327;DHT22;1174;51.588;7.328;2022-07-23T00:06:05;18.70;99.90
2327;DHT22;1174;51.588;7.328;2022-07-23T00:08:32;18.80;99.90
2327;DHT22;1174;51.588;7.328;2022-07-23T00:10:59;18.70;99.90
2327;DHT22;1174;51.588;7.328;2022-07-23T00:13:29;18.50;99.90
2327;DHT22;1174;51.588;7.328;2022-07-23T00:15:56;18.40;99.90
2327;DHT22;1174;51.588;7.328;2022-07-23T00:18:23;18.30;99.90
2327;DHT22;1174;51.588;7.328;2022-07-23T00:20:49;18.40;99.90
2327;DHT22;1174;51.588;7.328;2022-07-23T00:23:18;18.40;99.90
2327;DHT22;1174;51.588;7.328;2022-07-23T00:25:45;18.30;99.90
2327;DHT22;1174;51.588;7.328;2022-07-23T00:28:11;18.40;99.90
2327;DHT22;1174;51.588;7.328;2022-07-23T00:30:38;18.30;99.90
2327;DHT22;1174;51.588;7.328;2022-07-23T00:33:07;18.20;99.90
2327;DHT22;1174;51.588;7.328;2022-07-23T00:35:35;18.10;99.90
2327;DHT22;1174;51.588;7.328;2022-07-23T00:38:03;18.20;99.90
2327;DHT22;1174;51.588;7.328;2022-07-23T00:40:31;18.10;99.90
2327;DHT22;1174;51.588;7.328;2022-07-23T00:42:58;18.00;99.90
2327;DHT22;1174;51.588;7.328;2022-07-23T00:45:25;18.00;99.90
2327;DHT22;1174;51.588;7.328;2022-07-23T00:47:52;18.10;99.90
2327;DHT22;1174;51.588;7.328;2022-07-23T00:50:19;18.20;99.90
2327;DHT22;1174;51.588;7.328;2022-07-23T00:52:46;18.20;99.90
2327;DHT22;1174;51.588;7.328;2022-07-23T00:55:14;18.10;99.90
2327;DHT22;1174;51.588;7.328;2022-07-23T00:57:42;17.90;99.90
2327;DHT22;1174;51.588;7.328;2022-07-23T01:00:12;17.80;99.90
2327;DHT22;1174;51.588;7.328;2022-07-23T01:02:40;17.90;99.90
2327;DHT22;1174;51.588;7.328;2022-07-23T01:05:07;18.00;99.90
2327;DHT22;1174;51.588;7.328;2022-07-23T01:07:35;18.00;99.90
2327;DHT22;1174;51.588;7.328;2022-07-23T01:10:03;18.10;99.90
2327;DHT22;1174;51.588;7.328;2022-07-23T01:12:30;18.10;99.90
2327;DHT22;1174;51.588;7.328;2022-07-23T01:14:59;18.20;99.90
2327;DHT22;1174;51.588;7.328;2022-07-23T01:17:26;18.20;99.90
2327;DHT22;1174;51.588;7.328;2022-07-23T01:19:53;18.20;99.90
2327;DHT22;1174;51.588;7.328;2022-07-23T01:22:20;18.30;99.90
2327;DHT22;1174;51.588;7.328;2022-07-23T01:24:48;18.20;99.90
2327;DHT22;1174;51.588;7.328;2022-07-23T01:27:15;17.90;99.90
2327;DHT22;1174;51.588;7.328;2022-07-23T01:29:43;17.80;99.90
2327;DHT22;1174;51.588;7.328;2022-07-23T01:32:09;17.80;99.90
2327;DHT22;1174;51.588;7.328;2022-07-23T01:34:36;17.90;99.90
2327;DHT22;1174;51.588;7.328;2022-07-23T01:37:03;17.90;99.90
2327;DHT22;1174;51.588;7.328;2022-07-23T01:39:30;18.00;99.90
2327;DHT22;1174;51.588;7.328;2022-07-23T01:41:58;18.00;99.90
2327;DHT22;1174;51.588;7.328;2022-07-23T01:44:25;18.00;99.90
2327;DHT22;1174;51.588;7.328;2022-07-23T01:46:52;17.90;99.90
2327;DHT22;1174;51.588;7.328;2022-07-23T01:49:18;18.00;99.90
2327;DHT22;1174;51.588;7.328;2022-07-23T01:51:45;18.00;99.90
2327;DHT22;1174;51.588;7.328;2022-07-23T01:54:26;18.10;99.90
2327;DHT22;1174;51.588;7.328;2022-07-23T01:56:54;18.20;99.90
2327;DHT22;1174;51.588;7.328;2022-07-23T01:59:22;17.90;99.90
2327;DHT22;1174;51.588;7.328;2022-07-23T02:01:50;17.80;99.90
2327;DHT22;1174;51.588;7.328;2022-07-23T02:04:17;17.90;99.90
2327;DHT22;1174;51.588;7.328;2022-07-23T02:06:43;17.90;99.90
2327;DHT22;1174;51.588;7.328;2022-07-23T02:09:10;17.90;99.90
2327;DHT22;1174;51.588;7.328;2022-07-23T02:11:37;17.80;99.90
2327;DHT22;1174;51.588;7.328;2022-07-23T02:14:04;17.90;99.90
2327;DHT22;1174;51.588;7.328;2022-07-23T02:16:32;17.80;99.90
2327;DHT22;1174;51.588;7.328;2022-07-23T02:18:59;17.80;99.90
2327;DHT22;1174;51.588;7.328;2022-07-23T02:21:26;17.90;99.90
2327;DHT22;1174;51.588;7.328;2022-07-23T02:23:53;17.80;99.90
2327;DHT22;1174;51.588;7.328;2022-07-23T02:26:19;17.70;99.90
2327;DHT22;1174;51.588;7.328;2022-07-23T02:28:46;17.80;99.90
2327;DHT22;1174;51.588;7.328;2022-07-23T02:31:13;17.70;99.90
2327;DHT22;1174;51.588;7.328;2022-07-23T02:33:41;17.60;99.90
2327;DHT22;1174;51.588;7.328;2022-07-23T02:36:08;17.70;99.90
2327;DHT22;1174;51.588;7.328;2022-07-23T02:38:35;17.60;99.90
2327;DHT22;1174;51.588;7.328;2022-07-23T02:41:02;17.60;99.90
2327;DHT22;1174;51.588;7.328;2022-07-23T02:43:29;17.70;99.90
2327;DHT22;1174;51.588;7.328;2022-07-23T02:45:56;17.70;99.90
2327;DHT22;1174;51.588;7.328;2022-07-23T02:48:22;17.70;99.90
2327;DHT22;1174;51.588;7.328;2022-07-23T02:50:51;17.70;99.90
2327;DHT22;1174;51.588;7.328;2022-07-23T02:53:18;17.60;99.90
2327;DHT22;1174;51.588;7.328;2022-07-23T02:55:45;17.60;99.90
2327;DHT22;1174;51.588;7.328;2022-07-23T02:58:12;17.60;99.90
2327;DHT22;1174;51.588;7.328;2022-07-23T03:00:38;17.60;99.90
2327;DHT22;1174;51.588;7.328;2022-07-23T03:03:05;17.80;99.90
2327;DHT22;1174;51.588;7.328;2022-07-23T03:05:33;17.70;99.90
2327;DHT22;1174;51.588;7.328;2022-07-23T03:08:01;17.60;99.90
2327;DHT22;1174;51.588;7.328;2022-07-23T03:10:28;17.50;99.90
2327;DHT22;1174;51.588;7.328;2022-07-23T03:12:55;17.40;99.90
2327;DHT22;1174;51.588;7.328;2022-07-23T03:15:22;17.40;99.90
2327;DHT22;1174;51.588;7.328;2022-07-23T03:17:48;17.30;99.90
2327;DHT22;1174;51.588;7.328;2022-07-23T03:20:15;17.30;99.90
2327;DHT22;1174;51.588;7.328;2022-07-23T03:22:42;17.30;99.90
2327;DHT22;1174;51.588;7.328;2022-07-23T03:25:11;17.20;99.90
2327;DHT22;1174;51.588;7.328;2022-07-23T03:27:37;17.20;99.90
2327;DHT22;1174;51.588;7.328;2022-07-23T03:30:05;17.30;99.90
2327;DHT22;1174;51.588;7.328;2022-07-23T03:32:33;17.30;99.90
2327;DHT22;1174;51.588;7.328;2022-07-23T03:35:00;17.30;99.90
2327;DHT22;1174;51.588;7.328;2022-07-23T03:37:27;17.30;99.90
2327;DHT22;1174;51.588;7.328;2022-07-23T03:39:54;17.30;99.90
2327;DHT22;1174;51.588;7.328;2022-07-23T03:42:22;17.30;99.90
2327;DHT22;1174;51.588;7.328;2022-07-23T03:44:49;17.20;99.90
2327;DHT22;1174;51.588;7.328;2022-07-23T03:47:16;17.20;99.90
2327;DHT22;1174;51.588;7.328;2022-07-23T03:49:47;17.10;99.90
2327;DHT22;1174;51.588;7.328;2022-07-23T03:52:14;17.00;99.90
2327;DHT22;1174;51.588;7.328;2022-07-23T03:54:41;17.00;99.90
2327;DHT22;1174;51.588;7.328;2022-07-23T03:57:07;17.00;99.90
2327;DHT22;1174;51.588;7.328;2022-07-23T03:59:36;17.00;99.90
2327;DHT22;1174;51.588;7.328;2022-07-23T04:02:02;17.00;99.90
2327;DHT22;1174;51.588;7.328;2022-07-23T04:04:29;17.00;99.90
2327;DHT22;1174;51.588;7.328;2022-07-23T04:06:56;16.90;99.90
2327;DHT22;1174;51.588;7.328;2022-07-23T04:09:23;16.90;99.90
2327;DHT22;1174;51.588;7.328;2022-07-23T04:11:50;16.90;99.90
2327;DHT22;1174;51.588;7.328;2022-07-23T04:14:17;16.90;99.90
2327;DHT22;1174;51.588;7.328;2022-07-23T04:16:45;16.90;99.90
2327;DHT22;1174;51.588;7.328;2022-07-23T04:19:12;16.90;99.90
2327;DHT22;1174;51.588;7.328;2022-07-23T04:21:39;17.00;99.90
2327;DHT22;1174;51.588;7.328;2022-07-23T04:24:06;17.00;99.90
2327;DHT22;1174;51.588;7.328;2022-07-23T04:26:33;17.00;99.90
2327;DHT22;1174;51.588;7.328;2022-07-23T04:29:00;17.00;99.90
2327;DHT22;1174;51.588;7.328;2022-07-23T04:31:27;17.00;99.90
2327;DHT22;1174;51.588;7.328;2022-07-23T04:33:58;17.00;99.90
2327;DHT22;1174;51.588;7.328;2022-07-23T04:36:25;17.10;99.90
2327;DHT22;1174;51.588;7.328;2022-07-23T04:38:52;17.00;99.90
2327;DHT22;1174;51.588;7.328;2022-07-23T04:41:19;17.00;99.90
2327;DHT22;1174;51.588;7.328;2022-07-23T04:43:47;17.10;99.90
2327;DHT22;1174;51.588;7.328;2022-07-23T04:46:14;17.00;99.90
2327;DHT22;1174;51.588;7.328;2022-07-23T04:48:41;17.00;99.90
2327;DHT22;1174;51.588;7.328;2022-07-23T04:51:09;17.00;99.90
2327;DHT22;1174;51.588;7.328;2022-07-23T04:53:37;17.00;99.90
2327;DHT22;1174;51.588;7.328;2022-07-23T04:56:04;17.00;99.90
2327;DHT22;1174;51.588;7.328;2022-07-23T04:58:32;17.10;99.90
2327;DHT22;1174;51.588;7.328;2022-07-23T05:00:58;17.00;99.90
2327;DHT22;1174;51.588;7.328;2022-07-23T05:03:26;17.10;99.90
2327;DHT22;1174;51.588;7.328;2022-07-23T05:05:53;17.20;99.90
2327;DHT22;1174;51.588;7.328;2022-07-23T05:08:21;17.30;99.90
2327;DHT22;1174;51.588;7.328;2022-07-23T05:10:48;17.50;99.90
2327;DHT22;1174;51.588;7.328;2022-07-23T05:13:16;17.60;99.90
2327;DHT22;1174;51.588;7.328;2022-07-23T05:15:43;17.50;99.90
2327;DHT22;1174;51.588;7.328;2022-07-23T05:18:10;17.70;99.90
2327;DHT22;1174;51.588;7.328;2022-07-23T05:20:37;17.90;99.90
2327;DHT22;1174;51.588;7.328;2022-07-23T05:23:09;18.00;99.90
2327;DHT22;1174;51.588;7.328;2022-07-23T05:25:39;18.00;99.90
2327;DHT22;1174;51.588;7.328;2022-07-23T05:28:06;17.90;99.90
2327;DHT22;1174;51.588;7.328;2022-07-23T05:30:33;18.20;99.90
2327;DHT22;1174;51.588;7.328;2022-07-23T05:33:00;18.40;99.90
2327;DHT22;1174;51.588;7.328;2022-07-23T05:35:27;18.70;99.90
2327;DHT22;1174;51.588;7.328;2022-07-23T05:37:54;19.10;99.90
2327;DHT22;1174;51.588;7.328;2022-07-23T05:40:20;19.20;99.90
2327;DHT22;1174;51.588;7.328;2022-07-23T05:42:49;19.30;99.90
2327;DHT22;1174;51.588;7.328;2022-07-23T05:45:19;19.50;99.90
2327;DHT22;1174;51.588;7.328;2022-07-23T05:47:47;19.50;99.90
2327;DHT22;1174;51.588;7.328;2022-07-23T05:50:15;19.60;99.90
2327;DHT22;1174;51.588;7.328;2022-07-23T05:52:43;19.90;99.90
2327;DHT22;1174;51.588;7.328;2022-07-23T05:55:12;20.00;99.90
2327;DHT22;1174;51.588;7.328;2022-07-23T05:57:39;20.10;99.90
2327;DHT22;1174;51.588;7.328;2022-07-23T06:00:09;20.40;99.90
2327;DHT22;1174;51.588;7.328;2022-07-23T06:02:37;19.90;99.90
2327;DHT22;1174;51.588;7.328;2022-07-23T06:05:06;19.80;99.90
2327;DHT22;1174;51.588;7.328;2022-07-23T06:07:33;20.30;99.90
2327;DHT22;1174;51.588;7.328;2022-07-23T06:10:00;20.60;99.90
2327;DHT22;1174;51.588;7.328;2022-07-23T06:12:27;20.90;99.90
2327;DHT22;1174;51.588;7.328;2022-07-23T06:14:54;21.30;99.90
2327;DHT22;1174;51.588;7.328;2022-07-23T06:17:23;21.40;99.90
2327;DHT22;1174;51.588;7.328;2022-07-23T06:19:49;21.50;99.90
2327;DHT22;1174;51.588;7.328;2022-07-23T06:22:17;21.90;99.90
2327;DHT22;1174;51.588;7.328;2022-07-23T06:24:45;22.10;99.90
2327;DHT22;1174;51.588;7.328;2022-07-23T06:27:15;22.50;99.90
2327;DHT22;1174;51.588;7.328;2022-07-23T06:29:42;22.60;99.90
2327;DHT22;1174;51.588;7.328;2022-07-23T06:32:09;21.90;99.90
2327;DHT22;1174;51.588;7.328;2022-07-23T06:34:37;21.80;99.90
2327;DHT22;1174;51.588;7.328;2022-07-23T06:37:04;22.20;99.90
2327;DHT22;1174;51.588;7.328;2022-07-23T06:39:31;22.70;99.90
2327;DHT22;1174;51.588;7.328;2022-07-23T06:41:58;22.80;99.90
2327;DHT22;1174;51.588;7.328;2022-07-23T06:44:27;22.80;99.90
2327;DHT22;1174;51.588;7.328;2022-07-23T06:46:54;22.70;99.90
2327;DHT22;1174;51.588;7.328;2022-07-23T06:49:21;22.60;99.90
2327;DHT22;1174;51.588;7.328;2022-07-23T06:51:49;23.00;99.90
2327;DHT22;1174;51.588;7.328;2022-07-23T06:54:16;22.90;99.90
2327;DHT22;1174;51.588;7.328;2022-07-23T06:56:43;23.20;99.90
2327;DHT22;1174;51.588;7.328;2022-07-23T06:59:10;23.70;99.90
2327;DHT22;1174;51.588;7.328;2022-07-23T07:01:37;24.40;99.90
2327;DHT22;1174;51.588;7.328;2022-07-23T07:04:04;24.10;99.90
2327;DHT22;1174;51.588;7.328;2022-07-23T07:06:31;24.60;99.90
2327;DHT22;1174;51.588;7.328;2022-07-23T07:08:59;24.80;99.90
2327;DHT22;1174;51.588;7.328;2022-07-23T07:11:26;24.80;99.90
2327;DHT22;1174;51.588;7.328;2022-07-23T07:13:53;24.90;99.90
2327;DHT22;1174;51.588;7.328;2022-07-23T07:16:20;24.70;99.90
2327;DHT22;1174;51.588;7.328;2022-07-23T07:18:47;23.00;99.90
2327;DHT22;1174;51.588;7.328;2022-07-23T07:21:14;22.70;99.90
2327;DHT22;1174;51.588;7.328;2022-07-23T07:23:41;22.40;99.90
2327;DHT22;1174;51.588;7.328;2022-07-23T07:26:10;22.30;99.90
2327;DHT22;1174;51.588;7.328;2022-07-23T07:28:39;22.20;99.90
2327;DHT22;1174;51.588;7.328;2022-07-23T07:31:06;22.50;99.90
2327;DHT22;1174;51.588;7.328;2022-07-23T07:33:33;23.00;99.90
2327;DHT22;1174;51.588;7.328;2022-07-23T07:36:00;23.70;99.90
2327;DHT22;1174;51.588;7.328;2022-07-23T07:38:27;23.80;99.90
2327;DHT22;1174;51.588;7.328;2022-07-23T07:40:54;24.00;99.90
2327;DHT22;1174;51.588;7.328;2022-07-23T07:43:25;24.00;99.90
2327;DHT22;1174;51.588;7.328;2022-07-23T07:45:52;24.80;99.90
2327;DHT22;1174;51.588;7.328;2022-07-23T07:48:19;25.10;99.90
2327;DHT22;1174;51.588;7.328;2022-07-23T07:50:46;25.70;99.90
2327;DHT22;1174;51.588;7.328;2022-07-23T07:53:12;26.00;99.90
2327;DHT22;1174;51.588;7.328;2022-07-23T07:55:39;26.20;99.90
2327;DHT22;1174;51.588;7.328;2022-07-23T07:58:06;26.90;99.90
2327;DHT22;1174;51.588;7.328;2022-07-23T08:00:35;27.30;99.90
2327;DHT22;1174;51.588;7.328;2022-07-23T08:03:02;26.30;99.90
2327;DHT22;1174;51.588;7.328;2022-07-23T08:05:30;26.10;99.90
2327;DHT22;1174;51.588;7.328;2022-07-23T08:07:58;25.70;99.90
2327;DHT22;1174;51.588;7.328;2022-07-23T08:10:26;25.50;99.90
2327;DHT22;1174;51.588;7.328;2022-07-23T08:12:56;25.10;99.90
2327;DHT22;1174;51.588;7.328;2022-07-23T08:15:24;24.20;99.90
2327;DHT22;1174;51.588;7.328;2022-07-23T08:17:53;23.10;99.90
2327;DHT22;1174;51.588;7.328;2022-07-23T08:20:22;23.20;99.90
2327;DHT22;1174;51.588;7.328;2022-07-23T08:22:50;24.20;99.90
2327;DHT22;1174;51.588;7.328;2022-07-23T08:25:21;25.50;99.90
2327;DHT22;1174;51.588;7.328;2022-07-23T08:27:49;26.20;99.90
2327;DHT22;1174;51.588;7.328;2022-07-23T08:30:17;27.10;99.90
2327;DHT22;1174;51.588;7.328;2022-07-23T08:32:49;27.50;99.90
2327;DHT22;1174;51.588;7.328;2022-07-23T08:35:25;27.50;99.90
2327;DHT22;1174;51.588;7.328;2022-07-23T08:37:52;27.80;99.90
2327;DHT22;1174;51.588;7.328;2022-07-23T08:40:19;27.10;99.90
2327;DHT22;1174;51.588;7.328;2022-07-23T08:42:48;25.90;99.90
2327;DHT22;1174;51.588;7.328;2022-07-23T08:45:19;25.20;99.90
2327;DHT22;1174;51.588;7.328;2022-07-23T08:47:49;24.90;99.90
2327;DHT22;1174;51.588;7.328;2022-07-23T08:50:16;24.90;99.90
2327;DHT22;1174;51.588;7.328;2022-07-23T08:52:44;25.90;99.90
2327;DHT22;1174;51.588;7.328;2022-07-23T08:55:12;26.50;99.90
2327;DHT22;1174;51.588;7.328;2022-07-23T08:57:39;26.50;99.90
2327;DHT22;1174;51.588;7.328;2022-07-23T09:00:07;27.00;99.90
2327;DHT22;1174;51.588;7.328;2022-07-23T09:02:41;26.80;99.90
2327;DHT22;1174;51.588;7.328;2022-07-23T09:05:09;27.20;99.90
2327;DHT22;1174;51.588;7.328;2022-07-23T09:07:37;28.10;99.90
2327;DHT22;1174;51.588;7.328;2022-07-23T09:10:10;27.90;99.90
2327;DHT22;1174;51.588;7.328;2022-07-23T09:12:37;27.60;99.90
2327;DHT22;1174;51.588;7.328;2022-07-23T09:15:07;28.50;99.90
2327;DHT22;1174;51.588;7.328;2022-07-23T09:17:43;29.60;99.90
2327;DHT22;1174;51.588;7.328;2022-07-23T09:20:12;30.00;99.90
2327;DHT22;1174;51.588;7.328;2022-07-23T09:22:42;28.60;99.90
2327;DHT22;1174;51.588;7.328;2022-07-23T09:25:14;29.30;99.90
2327;DHT22;1174;51.588;7.328;2022-07-23T09:27:55;29.70;99.90
2327;DHT22;1174;51.588;7.328;2022-07-23T09:30:24;29.30;99.90
2327;DHT22;1174;51.588;7.328;2022-07-23T09:33:09;29.70;99.80
2327;DHT22;1174;51.588;7.328;2022-07-23T09:35:48;30.50;99.00
2327;DHT22;1174;51.588;7.328;2022-07-23T09:38:16;31.00;97.90
2327;DHT22;1174;51.588;7.328;2022-07-23T09:40:45;30.70;97.70
2327;DHT22;1174;51.588;7.328;2022-07-23T09:43:12;30.60;97.50
2327;DHT22;1174;51.588;7.328;2022-07-23T09:45:51;30.40;97.80
2327;DHT22;1174;51.588;7.328;2022-07-23T09:48:21;30.60;98.00
2327;DHT22;1174;51.588;7.328;2022-07-23T09:50:51;30.90;98.10
2327;DHT22;1174;51.588;7.328;2022-07-23T09:53:24;29.70;97.20
2327;DHT22;1174;51.588;7.328;2022-07-23T09:55:57;28.30;99.70
2327;DHT22;1174;51.588;7.328;2022-07-23T09:58:25;27.00;99.90
2327;DHT22;1174;51.588;7.328;2022-07-23T10:00:53;27.80;99.90
2327;DHT22;1174;51.588;7.328;2022-07-23T10:03:20;28.80;99.90
2327;DHT22;1174;51.588;7.328;2022-07-23T10:05:48;29.30;99.90
2327;DHT22;1174;51.588;7.328;2022-07-23T10:08:18;28.80;98.00
2327;DHT22;1174;51.588;7.328;2022-07-23T10:10:46;29.50;98.40
2327;DHT22;1174;51.588;7.328;2022-07-23T10:13:15;29.90;99.00
2327;DHT22;1174;51.588;7.328;2022-07-23T10:15:56;30.10;97.30
2327;DHT22;1174;51.588;7.328;2022-07-23T10:18:24;29.70;97.20
2327;DHT22;1174;51.588;7.328;2022-07-23T10:20:53;29.80;96.50
2327;DHT22;1174;51.588;7.328;2022-07-23T10:23:27;30.60;95.20
2327;DHT22;1174;51.588;7.328;2022-07-23T10:26:03;31.10;96.70
2327;DHT22;1174;51.588;7.328;2022-07-23T10:28:51;31.60;93.20
2327;DHT22;1174;51.588;7.328;2022-07-23T10:31:31;31.10;94.10
2327;DHT22;1174;51.588;7.328;2022-07-23T10:34:11;32.10;92.60
2327;DHT22;1174;51.588;7.328;2022-07-23T10:37:04;32.60;92.70
2327;DHT22;1174;51.588;7.328;2022-07-23T10:39:34;33.00;90.80
2327;DHT22;1174;51.588;7.328;2022-07-23T10:42:11;31.90;89.80
2327;DHT22;1174;51.588;7.328;2022-07-23T10:44:51;31.10;92.20
2327;DHT22;1174;51.588;7.328;2022-07-23T10:47:25;31.30;92.60
2327;DHT22;1174;51.588;7.328;2022-07-23T10:50:28;31.00;90.60
2327;DHT22;1174;51.588;7.328;2022-07-23T10:53:15;33.00;87.90
2327;DHT22;1174;51.588;7.328;2022-07-23T10:55:49;32.70;85.30
2327;DHT22;1174;51.588;7.328;2022-07-23T10:58:21;33.20;86.40
2327;DHT22;1174;51.588;7.328;2022-07-23T11:00:52;34.00;82.40
2327;DHT22;1174;51.588;7.328;2022-07-23T11:03:34;32.70;84.20
2327;DHT22;1174;51.588;7.328;2022-07-23T11:06:04;32.90;86.30
2327;DHT22;1174;51.588;7.328;2022-07-23T11:08:31;34.00;85.10
2327;DHT22;1174;51.588;7.328;2022-07-23T11:11:20;34.60;80.10
2327;DHT22;1174;51.588;7.328;2022-07-23T11:13:48;34.70;79.20
2327;DHT22;1174;51.588;7.328;2022-07-23T11:16:24;34.60;77.30
2327;DHT22;1174;51.588;7.328;2022-07-23T11:19:07;33.20;78.90
2327;DHT22;1174;51.588;7.328;2022-07-23T11:21:51;32.40;81.40
2327;DHT22;1174;51.588;7.328;2022-07-23T11:24:25;32.90;82.40
2327;DHT22;1174;51.588;7.328;2022-07-23T11:29:49;31.40;81.10
2327;DHT22;1174;51.588;7.328;2022-07-23T11:32:24;31.40;82.40
2327;DHT22;1174;51.588;7.328;2022-07-23T11:34:55;31.30;84.50
2327;DHT22;1174;51.588;7.328;2022-07-23T11:37:42;31.50;85.10
2327;DHT22;1174;51.588;7.328;2022-07-23T11:40:19;31.70;82.20
2327;DHT22;1174;51.588;7.328;2022-07-23T11:42:52;32.20;80.50
2327;DHT22;1174;51.588;7.328;2022-07-23T11:45:23;33.40;79.70
2327;DHT22;1174;51.588;7.328;2022-07-23T11:47:51;34.40;75.80
2327;DHT22;1174;51.588;7.328;2022-07-23T11:50:23;34.20;73.50
2327;DHT22;1174;51.588;7.328;2022-07-23T11:52:51;33.30;76.80
2327;DHT22;1174;51.588;7.328;2022-07-23T11:55:24;32.70;73.70
2327;DHT22;1174;51.588;7.328;2022-07-23T11:57:54;31.80;73.70
2327;DHT22;1174;51.588;7.328;2022-07-23T12:00:23;31.10;77.30
2327;DHT22;1174;51.588;7.328;2022-07-23T12:02:53;31.40;79.30
2327;DHT22;1174;51.588;7.328;2022-07-23T12:05:24;31.30;75.50
2327;DHT22;1174;51.588;7.328;2022-07-23T12:07:53;32.00;75.80
2327;DHT22;1174;51.588;7.328;2022-07-23T12:10:23;33.20;74.00
2327;DHT22;1174;51.588;7.328;2022-07-23T12:12:56;33.70;74.50
2327;DHT22;1174;51.588;7.328;2022-07-23T12:15:25;33.90;69.70
2327;DHT22;1174;51.588;7.328;2022-07-23T12:18:01;34.20;70.40
2327;DHT22;1174;51.588;7.328;2022-07-23T12:20:31;34.90;69.60
2327;DHT22;1174;51.588;7.328;2022-07-23T12:23:01;33.50;66.90
2327;DHT22;1174;51.588;7.328;2022-07-23T12:25:29;32.60;70.70
2327;DHT22;1174;51.588;7.328;2022-07-23T12:28:01;32.80;71.20
2327;DHT22;1174;51.588;7.328;2022-07-23T12:30:31;33.10;68.30
2327;DHT22;1174;51.588;7.328;2022-07-23T12:33:06;34.20;69.70
2327;DHT22;1174;51.588;7.328;2022-07-23T12:35:35;34.60;64.20
2327;DHT22;1174;51.588;7.328;2022-07-23T12:38:09;34.80;66.20
2327;DHT22;1174;51.588;7.328;2022-07-23T12:40:41;34.80;64.50
2327;DHT22;1174;51.588;7.328;2022-07-23T12:43:19;34.00;65.10
2327;DHT22;1174;51.588;7.328;2022-07-23T12:45:49;34.20;65.40
2327;DHT22;1174;51.588;7.328;2022-07-23T12:48:23;33.40;64.60
2327;DHT22;1174;51.588;7.328;2022-07-23T12:50:56;33.70;67.90
2327;DHT22;1174;51.588;7.328;2022-07-23T12:53:25;33.50;63.80
2327;DHT22;1174;51.588;7.328;2022-07-23T12:56:02;32.90;67.30
2327;DHT22;1174;51.588;7.328;2022-07-23T12:58:40;34.50;67.50
2327;DHT22;1174;51.588;7.328;2022-07-23T13:01:07;35.20;60.90
2327;DHT22;1174;51.588;7.328;2022-07-23T13:03:38;35.60;63.70
2327;DHT22;1174;51.588;7.328;2022-07-23T13:06:07;35.30;61.20
2327;DHT22;1174;51.588;7.328;2022-07-23T13:08:36;35.40;60.80
2327;DHT22;1174;51.588;7.328;2022-07-23T13:11:03;35.60;59.60
2327;DHT22;1174;51.588;7.328;2022-07-23T13:13:42;36.10;59.00
2327;DHT22;1174;51.588;7.328;2022-07-23T13:16:09;35.10;58.00
2327;DHT22;1174;51.588;7.328;2022-07-23T13:18:37;34.90;60.00
2327;DHT22;1174;51.588;7.328;2022-07-23T13:21:04;34.80;61.10
2327;DHT22;1174;51.588;7.328;2022-07-23T13:23:31;34.70;61.30
2327;DHT22;1174;51.588;7.328;2022-07-23T13:25:58;34.10;61.90
2327;DHT22;1174;51.588;7.328;2022-07-23T13:28:30;33.70;62.00
2327;DHT22;1174;51.588;7.328;2022-07-23T13:30:56;32.90;64.80
2327;DHT22;1174;51.588;7.328;2022-07-23T13:33:29;33.40;64.10
2327;DHT22;1174;51.588;7.328;2022-07-23T13:36:01;34.40;62.40
2327;DHT22;1174;51.588;7.328;2022-07-23T13:38:28;34.60;59.30
2327;DHT22;1174;51.588;7.328;2022-07-23T13:40:55;33.00;61.40
2327;DHT22;1174;51.588;7.328;2022-07-23T13:43:24;33.70;64.00
2327;DHT22;1174;51.588;7.328;2022-07-23T13:45:52;34.10;63.00
2327;DHT22;1174;51.588;7.328;2022-07-23T13:48:19;34.50;59.40
2327;DHT22;1174;51.588;7.328;2022-07-23T13:50:48;35.10;59.60
2327;DHT22;1174;51.588;7.328;2022-07-23T13:53:20;35.70;58.00
2327;DHT22;1174;51.588;7.328;2022-07-23T13:55:49;35.80;59.40
2327;DHT22;1174;51.588;7.328;2022-07-23T13:58:16;35.40;60.20
2327;DHT22;1174;51.588;7.328;2022-07-23T14:00:47;35.60;58.40
2327;DHT22;1174;51.588;7.328;2022-07-23T14:03:14;35.10;58.30
2327;DHT22;1174;51.588;7.328;2022-07-23T14:05:41;34.50;59.10
2327;DHT22;1174;51.588;7.328;2022-07-23T14:08:09;34.30;59.70
2327;DHT22;1174;51.588;7.328;2022-07-23T14:10:37;33.90;58.80
2327;DHT22;1174;51.588;7.328;2022-07-23T14:13:04;33.70;60.30
2327;DHT22;1174;51.588;7.328;2022-07-23T14:15:31;32.80;61.00
2327;DHT22;1174;51.588;7.328;2022-07-23T14:17:59;31.50;63.60
2327;DHT22;1174;51.588;7.328;2022-07-23T14:20:26;31.30;64.20
2327;DHT22;1174;51.588;7.328;2022-07-23T14:22:53;30.50;66.90
2327;DHT22;1174;51.588;7.328;2022-07-23T14:25:21;30.50;65.20
2327;DHT22;1174;51.588;7.328;2022-07-23T14:27:49;30.50;66.50
2327;DHT22;1174;51.588;7.328;2022-07-23T14:30:16;30.60;66.60
2327;DHT22;1174;51.588;7.328;2022-07-23T14:32:43;30.50;66.80
2327;DHT22;1174;51.588;7.328;2022-07-23T14:35:10;30.30;68.10
2327;DHT22;1174;51.588;7.328;2022-07-23T14:37:38;30.20;68.30
2327;DHT22;1174;51.588;7.328;2022-07-23T14:40:06;30.10;68.50
2327;DHT22;1174;51.588;7.328;2022-07-23T14:42:33;30.20;68.50
2327;DHT22;1174;51.588;7.328;2022-07-23T14:45:01;29.50;69.70
2327;DHT22;1174;51.588;7.328;2022-07-23T14:47:30;29.60;69.90
2327;DHT22;1174;51.588;7.328;2022-07-23T14:49:56;29.50;70.50
2327;DHT22;1174;51.588;7.328;2022-07-23T14:52:23;28.90;71.00
2327;DHT22;1174;51.588;7.328;2022-07-23T14:54:50;28.70;74.50
2327;DHT22;1174;51.588;7.328;2022-07-23T14:57:17;28.80;73.00
2327;DHT22;1174;51.588;7.328;2022-07-23T14:59:44;28.60;72.90
2327;DHT22;1174;51.588;7.328;2022-07-23T15:02:12;28.10;73.10
2327;DHT22;1174;51.588;7.328;2022-07-23T15:04:39;27.70;74.20
2327;DHT22;1174;51.588;7.328;2022-07-23T15:07:06;27.40;75.50
2327;DHT22;1174;51.588;7.328;2022-07-23T15:09:33;27.40;74.90
2327;DHT22;1174;51.588;7.328;2022-07-23T15:12:00;27.40;75.30
2327;DHT22;1174;51.588;7.328;2022-07-23T15:14:27;27.80;76.10
2327;DHT22;1174;51.588;7.328;2022-07-23T15:16:54;27.70;76.90
2327;DHT22;1174;51.588;7.328;2022-07-23T15:19:22;27.90;76.60
2327;DHT22;1174;51.588;7.328;2022-07-23T15:21:49;28.10;77.70
2327;DHT22;1174;51.588;7.328;2022-07-23T15:24:16;28.40;78.60
2327;DHT22;1174;51.588;7.328;2022-07-23T15:26:43;28.80;77.80
2327;DHT22;1174;51.588;7.328;2022-07-23T15:29:10;28.70;73.80
2327;DHT22;1174;51.588;7.328;2022-07-23T15:31:37;28.20;75.10
2327;DHT22;1174;51.588;7.328;2022-07-23T15:34:03;27.60;79.40
2327;DHT22;1174;51.588;7.328;2022-07-23T15:36:32;27.50;81.40
2327;DHT22;1174;51.588;7.328;2022-07-23T15:38:58;27.40;79.50
2327;DHT22;1174;51.588;7.328;2022-07-23T15:41:25;27.30;79.00
2327;DHT22;1174;51.588;7.328;2022-07-23T15:43:52;27.50;77.50
2327;DHT22;1174;51.588;7.328;2022-07-23T15:46:22;27.90;77.60
2327;DHT22;1174;51.588;7.328;2022-07-23T15:48:49;28.10;77.00
2327;DHT22;1174;51.588;7.328;2022-07-23T15:51:16;27.50;80.00
2327;DHT22;1174;51.588;7.328;2022-07-23T15:53:44;27.70;78.80
2327;DHT22;1174;51.588;7.328;2022-07-23T15:56:11;27.90;77.80
2327;DHT22;1174;51.588;7.328;2022-07-23T15:58:38;28.20;79.10
2327;DHT22;1174;51.588;7.328;2022-07-23T16:01:06;28.40;77.50
2327;DHT22;1174;51.588;7.328;2022-07-23T16:03:33;28.20;81.20
2327;DHT22;1174;51.588;7.328;2022-07-23T16:06:01;28.30;79.70
2327;DHT22;1174;51.588;7.328;2022-07-23T16:08:28;28.10;79.80
2327;DHT22;1174;51.588;7.328;2022-07-23T16:10:56;27.70;80.00
2327;DHT22;1174;51.588;7.328;2022-07-23T16:13:24;27.80;81.00
2327;DHT22;1174;51.588;7.328;2022-07-23T16:15:51;28.00;80.20